Barcelona, Barcelona Jose Antonio Anzoategui International Airport (SVBC)

NameBarcelona Jose Antonio Anzoategui International Airport
CityBarcelona
CountryVenezuela
ICAOSVBC
IATABLA
Altitude26 feet
CoordinatesGoogle Map
Live Air TrafficLiveATC.net
METARSVBC 230603Z AUTO 12005KT NCD 25/25 Q1014
2024-07-23 06:03:00 Wind: East-Southeast (120°) 2.57 m/s - Visibility: 1200 m - Temperature: 25 °C - Dew point: 25 °C - Humidity: 100% - Pressure: 1014 hPa

Sorry, no flights used the airport in this database.